Flight Track Log - Related Links

Times and Time Zones

All times are in EDT time to prevent confusion due to time zone crossing. See the N195JG flight status page for this flight to view local times or setup timezone preferences in your user account.

Time Position Orientation Groundspeed Altitude Reporting Facility
EDT Latitude Longitude Course Direction KTS MPH feet Rate Location/Type
Tue 02:55:20 PM 40.8342 -74.3639 98° East 145 167 2,300  Level New York Center
Tue 02:56:20 PM 40.8292 -74.3169 98° East 160 184 3,700 1,488 Climbing New York Center
Tue 02:57:21 PM 40.7881 -74.3039 166° South 153 176 5,300 1,576 Climbing New York Center
Tue 02:58:18 PM 40.7558 -74.3350 216° Southwest 147 169 6,800 1,487 Climbing New York Center
Tue 02:59:18 PM 40.7317 -74.3722 229° Southwest 146 168 8,200 1,488 Climbing New York Center
Tue 03:00:19 PM 40.7111 -74.4286 244° Southwest 151 174 9,800 1,488 Climbing New York Center
Tue 03:01:19 PM 40.6933 -74.4686 240° Southwest 156 180 11,200 1,388 Climbing New York Center
Tue 03:02:20 PM 40.6811 -74.5228 253° West 151 174 12,600 1,388 Climbing New York Center
Tue 03:03:20 PM 40.6711 -74.5742 256° West 143 165 14,000 700 Climbing New York Center
Tue 03:04:20 PM 40.6569 -74.6281 251° West 148 170 14,000 595 Level New York Center
Tue 03:05:21 PM 40.6425 -74.6875 252° West 165 190 15,200 1,017 Climbing New York Center
Tue 03:06:18 PM 40.6325 -74.7389 256° West 160 184 16,000 410 Climbing New York Center
Tue 03:07:18 PM 40.6181 -74.7956 251° West 160 184 16,000  Level New York Center
Tue 03:08:19 PM 40.6036 -74.8547 252° West 166 191 16,000 49 Level New York Center
Tue 03:09:20 PM 40.5889 -74.9114 251° West 171 197 16,100 504 Climbing New York Center
Tue 03:10:18 PM 40.5769 -74.9597 252° West 153 176 17,000 458 Climbing New York Center
Tue 03:11:18 PM 40.5667 -75.0083 254° West 148 170 17,000 149 Level New York Center
Tue 03:12:19 PM 40.5442 -75.0561 238° Southwest 153 176 17,300 885 Climbing New York Center
Tue 03:13:20 PM 40.5153 -75.1033 231° Southwest 159 183 18,800 1,240 Climbing New York Center
Tue 03:14:20 PM 40.4933 -75.1347 227° Southwest 148 170 19,800 966 Climbing New York Center
Tue 03:15:18 PM 40.4692 -75.1742 231° Southwest 143 165 20,700 763 Climbing New York Center
Tue 03:16:18 PM 40.4425 -75.2133 228° Southwest 143 165 21,300 545 Climbing New York Center
Tue 03:17:19 PM 40.4158 -75.2581 232° Southwest 154 177 21,800 541 Climbing New York Center
Tue 03:18:20 PM 40.3869 -75.3050 231° Southwest 159 183 22,400 555 Climbing New York Center
Tue 03:19:18 PM 40.3600 -75.3525 233° Southwest 164 189 22,900 605 Climbing New York Center
Tue 03:20:19 PM 40.3292 -75.3967 228° Southwest 169 194 23,600 595 Climbing New York Center
Tue 03:21:19 PM 40.3044 -75.4414 234° Southwest 169 194 24,100 248 Climbing New York Center
Tue 03:22:20 PM 40.2756 -75.4856 229° Southwest 169 194 24,100  Level New York Center
Tue 03:23:20 PM 40.2444 -75.5350 231° Southwest 174 200 24,100  Level New York Center
Tue 03:24:18 PM 40.2133 -75.5819 229° Southwest 174 200 24,100  Level New York Center
Tue 03:25:19 PM 40.1883 -75.6372 239° Southwest 174 200 24,100  Level New York Center
Tue 03:26:21 PM 40.1586 -75.6975 237° Southwest 179 206 24,100  Level New York Center
Tue 03:27:18 PM 40.1314 -75.7500 236° Southwest 179 206 24,100  Level New York Center
Tue 03:28:19 PM 40.1042 -75.8050 237° Southwest 184 212 24,100  Level New York Center
Tue 03:29:18 PM 40.0769 -75.8547 234° Southwest 184 212 24,100  Level New York Center
Tue 03:30:19 PM 40.0517 -75.9097 239° Southwest 184 212 24,100  Level New York Center
Tue 03:31:20 PM 40.0242 -75.9619 235° Southwest 184 212 24,100  Level New York Center
Tue 03:32:18 PM 39.9969 -76.0169 237° Southwest 184 212 24,100  Level New York Center
Tue 03:33:18 PM 39.9694 -76.0717 237° Southwest 184 212 24,100  Level New York Center
Tue 03:34:19 PM 39.9419 -76.1239 236° Southwest 184 212 24,100  Level New York Center
Tue 03:35:20 PM 39.9144 -76.1783 237° Southwest 179 206 24,100  Level New York Center
Tue 03:36:18 PM 39.8894 -76.2253 235° Southwest 179 206 24,100  Level New York Center
Tue 03:37:19 PM 39.8600 -76.2769 233° Southwest 179 206 24,100  Level New York Center
Tue 03:39:12 PM 39.8131 -76.3775 239° Southwest 181 208 24,100  Level Washington Center
Tue 03:40:13 PM 39.7817 -76.4311 233° Southwest 181 208 24,100  Level Washington Center
Tue 03:41:14 PM 39.7561 -76.4850 238° Southwest 181 208 24,100  Level Washington Center
Tue 03:42:14 PM 39.7203 -76.5439 232° Southwest 189 217 24,100  Level Washington Center
Tue 03:43:12 PM 39.6928 -76.5972 236° Southwest 189 217 24,100  Level Washington Center
Tue 03:44:14 PM 39.6672 -76.6483 237° Southwest 189 217 24,100  Level Washington Center
Tue 03:45:14 PM 39.6397 -76.7044 238° Southwest 189 217 24,100  Level Washington Center
Tue 03:46:12 PM 39.6100 -76.7578 234° Southwest 189 217 24,100  Level Washington Center
Tue 03:47:13 PM 39.5844 -76.8086 237° Southwest 189 217 24,100  Level Washington Center
Tue 03:48:14 PM 39.5547 -76.8647 236° Southwest 189 217 24,100  Level Washington Center
Tue 03:49:12 PM 39.5272 -76.9181 236° Southwest 189 217 24,100  Level Washington Center
Tue 03:50:13 PM 39.4994 -76.9711 236° Southwest 189 217 24,100  Level Washington Center
Tue 03:51:14 PM 39.4594 -77.0161 221° Southwest 189 217 24,100  Level Washington Center
Tue 03:52:12 PM 39.4214 -77.0556 219° Southwest 189 217 24,100  Level Washington Center
Tue 03:53:12 PM 39.3811 -77.1006 221° Southwest 189 217 24,100  Level Washington Center
Tue 03:54:13 PM 39.3411 -77.1428 219° Southwest 189 217 24,100  Level Washington Center
Tue 03:55:13 PM 39.3008 -77.1847 219° Southwest 189 217 24,100  Level Washington Center
Tue 03:56:14 PM 39.2586 -77.2267 218° Southwest 189 217 24,100  Level Washington Center
Tue 03:57:12 PM 39.2206 -77.2714 222° Southwest 189 217 24,100  Level Washington Center
Tue 03:58:12 PM 39.1783 -77.3133 218° Southwest 189 217 24,100  Level Washington Center
Tue 03:59:13 PM 39.1381 -77.3550 219° Southwest 189 217 24,100  Level Washington Center
Tue 04:00:14 PM 39.0978 -77.3969 219° Southwest 189 217 24,100  Level Washington Center
Tue 04:01:14 PM 39.0578 -77.4386 219° Southwest 189 217 24,100  Level Washington Center
Tue 04:02:12 PM 39.0217 -77.4753 218° Southwest 189 217 24,100  Level Washington Center
Tue 04:03:13 PM 38.9814 -77.5169 219° Southwest 189 217 24,100  Level Washington Center
Tue 04:04:14 PM 38.9367 -77.5664 221° Southwest 189 217 24,100  Level Washington Center
Tue 04:05:14 PM 38.8922 -77.6081 216° Southwest 189 217 24,100  Level Washington Center
Tue 04:06:12 PM 38.8519 -77.6494 219° Southwest 189 217 24,100  Level Washington Center
Tue 04:07:13 PM 38.8158 -77.6883 220° Southwest 184 212 24,100  Level Washington Center
Tue 04:08:14 PM 38.7714 -77.7325 218° Southwest 189 217 24,100  Level Washington Center
Tue 04:09:12 PM 38.7267 -77.7764 217° Southwest 189 217 24,100  Level Washington Center
Tue 04:10:13 PM 38.6886 -77.8178 220° Southwest 189 217 24,100  Level Washington Center
Tue 04:11:14 PM 38.6522 -77.8567 220° Southwest 189 217 24,100  Level Washington Center
Tue 04:12:14 PM 38.6222 -77.8983 227° Southwest 182 209 24,100  Level Washington Center
Tue 04:13:12 PM 38.5944 -77.9450 233° Southwest 169 194 24,100  Level Washington Center
Tue 04:14:12 PM 38.5664 -77.9947 234° Southwest 164 189 24,100  Level Washington Center
Tue 04:15:12 PM 38.5383 -78.0417 233° Southwest 170 196 24,100  Level Washington Center
Tue 04:16:12 PM 38.5100 -78.0911 234° Southwest 177 204 24,100  Level Washington Center
Tue 04:17:12 PM 38.4819 -78.1406 234° Southwest 177 204 24,100  Level Washington Center
Tue 04:18:14 PM 38.4517 -78.1897 232° Southwest 177 204 24,100  Level Washington Center
Tue 04:19:14 PM 38.4214 -78.2392 232° Southwest 177 204 24,100  Level Washington Center
Tue 04:20:11 PM 38.3931 -78.2911 235° Southwest 177 204 24,100  Level Washington Center
Tue 04:21:13 PM 38.3650 -78.3378 233° Southwest 177 204 24,100  Level Washington Center
Tue 04:22:13 PM 38.3347 -78.3897 233° Southwest 177 204 24,100  Level Washington Center
Tue 04:23:14 PM 38.3042 -78.4414 233° Southwest 177 204 24,100  Level Washington Center
Tue 04:24:14 PM 38.2739 -78.4906 232° Southwest 177 204 24,100  Level Washington Center
Tue 04:25:12 PM 38.2519 -78.5344 238° Southwest 171 197 24,100  Level Washington Center
Tue 04:26:13 PM 38.2214 -78.5861 233° Southwest 171 197 24,100  Level Washington Center
Tue 04:27:14 PM 38.1911 -78.6325 230° Southwest 171 197 24,100  Level Washington Center
Tue 04:28:12 PM 38.1606 -78.6867 234° Southwest 176 203 24,100  Level Washington Center
Tue 04:29:12 PM 38.1278 -78.7436 234° Southwest 181 208 24,100  Level Washington Center
Tue 04:30:13 PM 38.0972 -78.7922 231° Southwest 181 208 24,100  Level Washington Center
Tue 04:31:14 PM 38.0667 -78.8411 232° Southwest 181 208 24,100  Level Washington Center
Tue 04:32:12 PM 38.0383 -78.8875 232° Southwest 181 208 24,100  Level Washington Center
Tue 04:33:13 PM 38.0078 -78.9389 233° Southwest 186 214 24,100  Level Washington Center
Tue 04:34:14 PM 37.9792 -78.9903 235° Southwest 186 214 24,100  Level Washington Center
Tue 04:35:12 PM 37.9442 -79.0439 230° Southwest 186 214 24,100  Level Washington Center
Tue 04:36:12 PM 37.9158 -79.0925 234° Southwest 186 214 24,100  Level Washington Center
Tue 04:37:13 PM 37.8831 -79.1411 230° Southwest 181 208 24,100  Level Washington Center
Tue 04:38:14 PM 37.8483 -79.1869 226° Southwest 181 208 24,100  Level Washington Center
Tue 04:39:12 PM 37.8178 -79.2300 228° Southwest 186 214 24,100  Level Washington Center
Tue 04:40:13 PM 37.7831 -79.2783 228° Southwest 192 221 24,100  Level Washington Center
Tue 04:41:14 PM 37.7481 -79.3292 229° Southwest 192 221 24,100  Level Washington Center
Tue 04:42:12 PM 37.7047 -79.3822 224° Southwest 192 221 24,100  Level Washington Center
Tue 04:43:12 PM 37.6697 -79.4328 229° Southwest 187 215 24,100  Level Washington Center
Tue 04:44:13 PM 37.6347 -79.4808 227° Southwest 187 215 24,100  Level Washington Center
Tue 04:45:14 PM 37.5978 -79.5289 226° Southwest 187 215 24,100  Level Washington Center
Tue 04:46:12 PM 37.5625 -79.5794 229° Southwest 187 215 24,100  Level Washington Center
Tue 04:47:13 PM 37.5278 -79.6247 226° Southwest 187 215 24,100  Level Washington Center
Tue 04:48:14 PM 37.4925 -79.6753 229° Southwest 187 215 24,100  Level Washington Center
Tue 04:49:12 PM 37.4575 -79.7231 227° Southwest 187 215 24,100  Level Washington Center
Tue 04:50:12 PM 37.4225 -79.7708 227° Southwest 193 222 24,100  Level Washington Center
Tue 04:51:13 PM 37.3897 -79.8186 229° Southwest 193 222 24,100  Level Washington Center
Tue 04:52:11 PM 37.3547 -79.8639 226° Southwest 193 222 24,100  Level Washington Center
Tue 04:53:12 PM 37.3194 -79.9114 227° Southwest 188 216 24,100  Level Washington Center
Tue 04:54:13 PM 37.2822 -79.9642 228° Southwest 188 216 24,100  Level Washington Center
Tue 04:55:14 PM 37.2472 -80.0064 224° Southwest 188 216 24,100  Level Washington Center
Tue 04:56:12 PM 37.2142 -80.0542 229° Southwest 188 216 24,100  Level Washington Center
Tue 04:57:12 PM 37.1856 -80.0942 228° Southwest 188 216 24,100  Level Washington Center
Tue 04:58:13 PM 37.1547 -80.1367 228° Southwest 183 211 24,100  Level Washington Center
Tue 04:59:12 PM 37.1175 -80.1839 225° Southwest 183 211 24,100  Level Washington Center
Tue 05:00:40 PM 37.0594 -80.2597 226° Southwest 183 211 24,100  Level Atlanta Center
Tue 05:01:40 PM 37.0233 -80.3083 227° Southwest 188 216 24,100  Level Atlanta Center
Tue 05:02:40 PM 36.9933 -80.3511 229° Southwest 188 216 24,100  Level Atlanta Center
Tue 05:03:40 PM 36.9553 -80.3972 224° Southwest 193 222 24,100  Level Atlanta Center
Tue 05:04:40 PM 36.9231 -80.4428 229° Southwest 193 222 24,100  Level Atlanta Center
Tue 05:05:40 PM 36.8869 -80.4911 227° Southwest 188 216 24,100  Level Atlanta Center
Tue 05:06:40 PM 36.8489 -80.5394 225° Southwest 188 216 24,100  Level Atlanta Center
Tue 05:07:40 PM 36.8167 -80.5850 229° Southwest 188 216 24,100  Level Atlanta Center
Tue 05:08:40 PM 36.7806 -80.6333 227° Southwest 193 222 24,100  Level Atlanta Center
Tue 05:09:40 PM 36.7483 -80.6786 228° Southwest 193 222 24,100  Level Atlanta Center
Tue 05:10:40 PM 36.7100 -80.7217 222° Southwest 180 207 24,100  Level Atlanta Center
Tue 05:11:40 PM 36.6758 -80.7697 228° Southwest 185 213 24,100  Level Atlanta Center
Tue 05:12:40 PM 36.6436 -80.8175 230° Southwest 185 213 24,100  Level Atlanta Center
Tue 05:13:40 PM 36.6075 -80.8631 225° Southwest 185 213 24,100  Level Atlanta Center
Tue 05:15:40 PM 36.5408 -80.9508 227° Southwest 175 201 24,100  Level Atlanta Center
Tue 05:16:40 PM 36.5067 -80.9986 228° Southwest 175 201 24,100  Level Atlanta Center
Tue 05:17:40 PM 36.4742 -81.0414 227° Southwest 175 201 24,100  Level Atlanta Center
Tue 05:18:40 PM 36.4378 -81.0892 227° Southwest 181 208 24,100  Level Atlanta Center
Tue 05:19:40 PM 36.4056 -81.1317 227° Southwest 181 208 24,100  Level Atlanta Center
Tue 05:20:40 PM 36.3711 -81.1767 226° Southwest 181 208 24,100  Level Atlanta Center
Tue 05:21:40 PM 36.3367 -81.2192 225° Southwest 176 203 24,100  Level Atlanta Center
Tue 05:22:40 PM 36.3044 -81.2667 230° Southwest 176 203 24,100  Level Atlanta Center
Tue 05:23:40 PM 36.2719 -81.3089 226° Southwest 176 203 24,100  Level Atlanta Center
Tue 05:24:40 PM 36.2356 -81.3564 226° Southwest 176 203 24,100  Level Atlanta Center
Tue 05:25:40 PM 36.1950 -81.4092 226° Southwest 181 208 24,100  Level Atlanta Center
Tue 05:26:40 PM 36.1542 -81.4594 225° Southwest 200 230 24,100  Level Atlanta Center
Tue 05:27:40 PM 36.1178 -81.5094 228° Southwest 200 230 24,100  Level Atlanta Center
Tue 05:28:40 PM 36.0811 -81.5544 225° Southwest 194 223 24,100  Level Atlanta Center
Tue 05:29:40 PM 36.0444 -81.6042 228° Southwest 199 229 24,100  Level Atlanta Center
Tue 05:30:40 PM 36.0078 -81.6489 225° Southwest 199 229 24,100  Level Atlanta Center
Tue 05:31:40 PM 35.9692 -81.7014 228° Southwest 199 229 24,100  Level Atlanta Center
Tue 05:32:40 PM 35.9325 -81.7486 226° Southwest 199 229 24,100  Level Atlanta Center
Tue 05:33:40 PM 35.8981 -81.7931 226° Southwest 199 229 24,100  Level Atlanta Center
Tue 05:34:40 PM 35.8614 -81.8403 226° Southwest 199 229 24,100  Level Atlanta Center
Tue 05:35:40 PM 35.8244 -81.8847 224° Southwest 194 223 24,100  Level Atlanta Center
Tue 05:36:40 PM 35.7919 -81.9344 231° Southwest 194 223 24,100  Level Atlanta Center
Tue 05:37:40 PM 35.7572 -81.9761 224° Southwest 194 223 24,100  Level Atlanta Center
Tue 05:38:40 PM 35.7183 -82.0258 226° Southwest 199 229 24,100  Level Atlanta Center
Tue 05:39:40 PM 35.6797 -82.0753 226° Southwest 204 235 24,100  Level Atlanta Center
Tue 05:40:40 PM 35.6386 -82.1247 224° Southwest 204 235 24,100 -50 Level Atlanta Center
Tue 05:41:40 PM 35.6039 -82.1692 226° Southwest 192 221 24,000  Descending Atlanta Center
Tue 05:42:40 PM 35.5650 -82.2186 226° Southwest 197 227 24,100 50 Climbing Atlanta Center
Tue 05:43:40 PM 35.5281 -82.2653 226° Southwest 197 227 24,100  Level Atlanta Center
Tue 05:44:40 PM 35.4892 -82.3169 227° Southwest 197 227 24,100  Level Atlanta Center
Tue 05:45:40 PM 35.4522 -82.3636 226° Southwest 197 227 24,100  Level Atlanta Center
Tue 05:46:40 PM 35.4133 -82.4103 224° Southwest 197 227 24,100  Level Atlanta Center
Tue 05:47:40 PM 35.3742 -82.4594 226° Southwest 197 227 24,100  Level Atlanta Center
Tue 05:48:40 PM 35.3372 -82.5036 224° Southwest 197 227 24,100  Level Atlanta Center
Tue 05:49:40 PM 35.3003 -82.5525 227° Southwest 197 227 24,100  Level Atlanta Center
Tue 05:50:40 PM 35.2653 -82.5939 224° Southwest 197 227 24,100  Level Atlanta Center
Tue 05:51:40 PM 35.2283 -82.6428 227° Southwest 197 227 24,100  Level Atlanta Center
Tue 05:52:40 PM 35.1892 -82.6892 224° Southwest 197 227 24,100  Level Atlanta Center
Tue 05:53:40 PM 35.1522 -82.7331 224° Southwest 197 227 24,100 -250 Level Atlanta Center
Tue 05:54:40 PM 35.1172 -82.7919 234° Southwest 204 235 23,600 -850 Descending Atlanta Center
Tue 05:55:40 PM 35.0825 -82.8508 234° Southwest 209 241 22,400 -1,300 Descending Atlanta Center
Tue 05:56:40 PM 35.0494 -82.9072 234° Southwest 209 241 21,000 -1,150 Descending Atlanta Center
Tue 05:57:40 PM 35.0144 -82.9608 231° Southwest 209 241 20,100 -900 Descending Atlanta Center
Tue 05:58:40 PM 34.9817 -83.0119 232° Southwest 204 235 19,200 -900 Descending Atlanta Center
Tue 05:59:40 PM 34.9486 -83.0658 233° Southwest 204 235 18,300 -1,000 Descending Atlanta Center
Tue 06:00:40 PM 34.9117 -83.1244 232° Southwest 199 229 17,200 -950 Descending Atlanta Center
Tue 06:01:40 PM 34.8828 -83.1728 234° Southwest 199 229 16,400 -950 Descending Atlanta Center
Tue 06:02:40 PM 34.8456 -83.2339 233° Southwest 204 235 15,300 -1,000 Descending Atlanta Center
Tue 06:03:40 PM 34.8144 -83.2822 232° Southwest 198 228 14,400 -900 Descending Atlanta Center
Tue 06:04:40 PM 34.7814 -83.3331 232° Southwest 198 228 13,500 -900 Descending Atlanta Center
Tue 06:05:40 PM 34.7464 -83.3917 234° Southwest 203 234 12,600 -950 Descending Atlanta Center
Tue 06:06:40 PM 34.7172 -83.4400 234° Southwest 195 224 11,600 -950 Descending Atlanta Center
Tue 06:07:40 PM 34.6842 -83.4881 230° Southwest 195 224 10,700 -900 Descending Atlanta Center
Tue 06:08:40 PM 34.6553 -83.5389 235° Southwest 195 224 9,800 -900 Descending Atlanta Center
Tue 06:09:40 PM 34.6344 -83.5894 243° Southwest 183 211 8,900 -900 Descending Atlanta Center
Tue 06:10:40 PM 34.6097 -83.6375 238° Southwest 167 192 8,000 -900 Descending Atlanta Center
Tue 06:11:40 PM 34.5889 -83.6906 245° Southwest 167 192 7,100 -450 Descending Atlanta Center
Tue 06:12:40 PM 34.5578 -83.7361 230° Southwest 173 199 7,100 -50 Level Atlanta Center
Tue 06:13:40 PM 34.5225 -83.7817 227° Southwest 184 212 7,000 -33 Descending Atlanta Center
Tue 06:15:00 PM 34.4791 -83.8419 229° Southwest  Level FlightAware Approximate
Tue 06:15:40 PM 34.4578 -83.8750 229° Southwest 184 212 7,000  Level Atlanta Center
Tue 06:16:40 PM 34.4267 -83.9203 230° Southwest 184 212 7,100 50 Climbing Atlanta Center
Tue 06:17:40 PM 34.3953 -83.9633 229° Southwest 184 212 7,100  Level Atlanta Center
Tue 06:18:40 PM 34.3642 -84.0061 229° Southwest 184 212 7,100  Level Atlanta Center
Tue 06:19:40 PM 34.3347 -84.0489 230° Southwest 184 212 7,100  Level Atlanta Center
Tue 06:20:40 PM 34.3036 -84.0942 230° Southwest 184 212 7,100 -500 Level Atlanta Center
Tue 06:21:40 PM 34.2764 -84.1444 237° Southwest 184 212 6,100 -950 Descending Atlanta Center
Tue 06:22:40 PM 34.2469 -84.1947 235° Southwest 179 206 5,200 -900 Descending Atlanta Center
Tue 06:23:40 PM 34.2117 -84.2372 225° Southwest 179 206 4,300 -600 Descending Atlanta Center
Tue 06:24:40 PM 34.1781 -84.2822 228° Southwest 184 212 4,000 -400 Descending Atlanta Center
Tue 06:25:40 PM 34.1444 -84.3275 228° Southwest 177 204 3,500 -545 Descending Atlanta Center
Tue 06:26:30 PM 34.1167 -84.3667 229° Southwest 168 193 3,000 -288 Descending Atlanta TRACON
Tue 06:27:24 PM 34.1000 -84.4000 239° Southwest 171 197 3,000  Level Atlanta TRACON
Tue 06:28:30 PM 34.0500 -84.4500 220° Southwest 170 196 3,000 -200 Level Atlanta TRACON
Tue 06:29:24 PM 34.0333 -84.4833 239° Southwest 166 191 2,600 -474 Descending Atlanta TRACON
Tue 06:30:24 PM 34.0167 -84.5333 248° West 144 166 2,100 -595 Descending Atlanta TRACON
Tue 06:31:25 PM 34.0167 -84.5667 270° West 131 151 1,400 -689 Descending Atlanta TRACON

Login

Don't have an account? Register now (free) for customized features, flight alerts, and more!